• Join FlightAware (Why Join?)
  • Login
  • US Flag 
07:07PM EST


 

Airport Tracker/Info


-or-


 

Live Flight TrackerFlight Track Log ✈ UPS1304 ✈ 26-Jul-2013 ✈ KSDF - KATL

Flight Track Log - Related Links

Times and Time Zones

All times are in EDT time to prevent confusion due to time zone crossing. See the UPS1304 flight status page for this flight to view local times or setup timezone preferences in your user account.

Time Position Orientation Groundspeed Altitude Reporting Facility
EDT Latitude Longitude Course Direction KTS MPH feet Rate Location/Type
04:05AM 38.1700 -85.7390 199° South  Level FlightAware
04:13AM 38.1710 -85.7400 270° West 2 2  Level FlightAware
04:16AM 38.0320 -85.9744 233° Southwest  Level FlightAware Approximate
04:17AM 37.9715 -86.0791 234° Southwest  Level FlightAware Approximate
04:18AM 37.9124 -86.1849 233° Southwest  Level FlightAware Approximate
04:18AM 38.1710 -85.7410 233° Southwest 23 26  Level FlightAware
04:19AM 38.1730 -85.7430 322° Northwest 16 18 120 Level FlightAware
04:20AM 38.1760 -85.7440 345° North 22 25 120 Level FlightAware
04:21AM 38.1810 -85.7450 351° North 32 37 120 Level FlightAware
04:23AM 38.0599 -85.9279 233° Southwest  Level FlightAware Approximate
04:23AM 38.1830 -85.7460 233° Southwest 15 17  Level FlightAware
04:23AM 38.1840 -85.7460 360° North 14 16 240 Level FlightAware
04:24AM 38.1850 -85.7460 360° North 13 15 240 Level FlightAware
04:25AM 38.1850 -85.7470 270° West 12 14 300 Level FlightAware
04:26AM 38.1850 -85.7480 270° West 15 17 480 Level FlightAware
04:27AM 38.1840 -85.7480 180° South 21 24 720 Level FlightAware
04:27AM 38.1730 -85.7440 164° South 155 178 1,560 Level FlightAware
04:28AM 38.1550 -85.7390 168° South 169 194 1,300 2,460 Climbing FlightAware
04:28AM 38.1240 -85.7440 187° South 226 260 2,400 2,220 Climbing FlightAware
04:29AM 38.0960 -85.7500 190° South 258 297 3,500 3,480 Climbing FlightAware
04:29AM 38.0670 -85.7560 189° South 262 302 5,200 3,960 Climbing FlightAware
04:30AM 38.0490 -85.7700 211° Southwest 275 316 6,300 3,660 Climbing FlightAware
04:30AM 38.0440 -85.7800 238° Southwest 277 319 6,800 4,680 Climbing FlightAware
04:30AM 38.0390 -85.8130 259° West 271 312 8,500 3,900 Climbing FlightAware
04:30AM 38.0420 -85.8520 276° West 286 329 9,700 2,760 Climbing FlightAware
04:31AM 38.0260 -85.9070 250° West 309 356 11,200 2,100 Climbing FlightAware
04:32AM 37.9950 -85.9850 243° Southwest 377 434 12,500 1,800 Climbing FlightAware
04:32AM 37.9640 -86.0290 228° Southwest 415 478 13,400 2,880 Climbing FlightAware
04:32AM 37.9430 -86.0380 199° South 417 480 14,200 3,840 Climbing FlightAware
04:33AM 37.8540 -86.0330 177° South 442 509 16,900 2,940 Climbing FlightAware
04:34AM 37.7430 -86.0020 168° South 458 527 19,400 2,520 Climbing FlightAware
04:35AM 37.6560 -85.9810 169° South 490 564 20,900 2,520 Climbing FlightAware
04:35AM 37.5600 -85.9570 169° South 504 580 22,800 2,280 Climbing FlightAware
04:36AM 37.4120 -85.9190 168° South 531 611 24,900 2,340 Climbing FlightAware
04:37AM 37.2900 -85.8880 169° South 534 615 27,100 2,160 Climbing FlightAware
04:38AM 37.1460 -85.8510 168° South 532 612 29,000 1,140 Climbing FlightAware
04:39AM 37.0480 -85.8260 168° South 532 612 29,000  Level FlightAware
04:39AM 37.0161 -85.8182 169° South 533 613 29,000  Level FlightAware ADS-B
04:40AM 36.9294 -85.7962 169° South 533 613 29,000  Level FlightAware ADS-B
04:41AM 36.7850 -85.7590 168° South 531 611 29,000  Level FlightAware
04:41AM 36.6840 -85.7340 169° South 531 611 29,000  Level FlightAware
04:42AM 36.6348 -85.7213 168° South 531 611 29,000  Level FlightAware ADS-B
04:42AM 36.5622 -85.7031 169° South 532 612 29,000  Level FlightAware ADS-B
04:43AM 36.4898 -85.6848 169° South 533 613 29,000  Level FlightAware ADS-B
04:43AM 36.3911 -85.6602 169° South 533 613 29,000  Level FlightAware ADS-B
04:44AM 36.2860 -85.6340 169° South 533 613 29,000  Level FlightAware ADS-B
04:45AM 36.2130 -85.6159 169° South 534 615 29,000  Level FlightAware ADS-B
04:45AM 36.1381 -85.5973 169° South 532 612 29,000  Level FlightAware ADS-B
04:46AM 36.0654 -85.5793 169° South 532 612 29,000  Level FlightAware ADS-B
04:46AM 35.9878 -85.5597 168° South 533 613 29,000  Level FlightAware ADS-B
04:47AM 35.9155 -85.5386 167° South 533 613 29,000  Level FlightAware ADS-B
04:47AM 35.8425 -85.5171 167° South 533 613 29,000  Level FlightAware ADS-B
04:48AM 35.7706 -85.4964 167° South 532 612 29,000  Level FlightAware ADS-B
04:48AM 35.6987 -85.4757 167° South 531 611 29,000  Level FlightAware ADS-B
04:49AM 35.5959 -85.4461 167° South 530 610 29,000  Level FlightAware ADS-B
04:50AM 35.5080 -85.4208 167° South 529 609 29,000  Level FlightAware ADS-B
04:50AM 35.4420 -85.4020 167° South 529 609 29,000  Level FlightAware
04:50AM 35.4057 -85.3915 167° South 529 609 29,000 -420 Level FlightAware ADS-B
04:51AM 35.3326 -85.3707 167° South 529 609 28,700 -600 Descending FlightAware ADS-B
04:51AM 35.2606 -85.3502 167° South 530 610 28,400 -600 Descending FlightAware ADS-B
04:52AM 35.1884 -85.3297 167° South 528 608 28,100 -720 Descending FlightAware ADS-B
04:52AM 35.1172 -85.3095 167° South 522 601 27,700 -720 Descending FlightAware ADS-B
04:53AM 35.0461 -85.2896 167° South 515 593 27,400 -720 Descending FlightAware ADS-B
04:53AM 34.9719 -85.2688 167° South 512 589 27,000 -780 Descending FlightAware ADS-B
04:54AM 34.9021 -85.2491 167° South 511 588 26,600 -720 Descending FlightAware ADS-B
04:54AM 34.8322 -85.2293 167° South 506 582 26,300 -720 Descending FlightAware ADS-B
04:55AM 34.7631 -85.2101 167° South 501 577 25,900 -1,080 Descending FlightAware ADS-B
04:55AM 34.6924 -85.1904 167° South 501 577 25,200 -1,980 Descending FlightAware ADS-B
04:56AM 34.6252 -85.1715 167° South 491 565 23,900 -2,640 Descending FlightAware ADS-B
04:56AM 34.5593 -85.1531 167° South 482 555 22,600 -2,580 Descending FlightAware ADS-B
04:57AM 34.4931 -85.1348 167° South 473 544 21,300 -2,460 Descending FlightAware ADS-B
04:57AM 34.4293 -85.1171 167° South 464 534 20,100 -2,520 Descending FlightAware ADS-B
04:58AM 34.3669 -85.0997 167° South 453 521 18,800 -2,580 Descending FlightAware ADS-B
04:58AM 34.3052 -85.0822 167° South 447 514 17,500 -2,520 Descending FlightAware ADS-B
04:59AM 34.2130 -85.0570 167° South 431 496 15,600 -2,460 Descending FlightAware
05:00AM 34.1370 -85.0360 167° South 425 489 14,000 -1,620 Descending FlightAware
05:01AM 34.0490 -84.9860 155° Southeast 418 481 13,100 -1,860 Descending FlightAware
05:01AM 33.9780 -84.9140 140° Southeast 412 474 11,000 -1,980 Descending FlightAware
05:02AM 33.9100 -84.8600 147° Southeast 376 433 10,200 -720 Descending FlightAware
05:03AM 33.8560 -84.8170 147° Southeast 334 384 10,000 -300 Descending FlightAware
05:03AM 33.8220 -84.7900 147° Southeast 302 348 9,900 -1,200 Descending FlightAware
05:04AM 33.7900 -84.7640 146° Southeast 294 338 8,900 -1,980 Descending FlightAware
05:04AM 33.7580 -84.7400 148° Southeast 275 316 8,100 -2,700 Descending FlightAware
05:05AM 33.7270 -84.7140 145° Southeast 278 320 6,300 -3,420 Descending FlightAware
05:05AM 33.6970 -84.6910 147° Southeast 269 310 4,800 -2,580 Descending FlightAware
05:05AM 33.6850 -84.6790 140° Southeast 253 291 4,600 -480 Descending FlightAware
05:06AM 33.6740 -84.6630 130° Southeast 235 270 4,600 -600 Level FlightAware
05:06AM 33.6610 -84.6320 117° Southeast 231 266 4,200 -1,200 Descending FlightAware
05:07AM 33.6520 -84.5980 108° East 213 245 3,500 -1,440 Descending FlightAware
05:07AM 33.6500 -84.5710 95° East 191 220 3,000 -1,080 Descending FlightAware
05:07AM 33.6500 -84.5560 90° East 172 198 2,800 -840 Descending FlightAware
05:08AM 33.6500 -84.5310 90° East 157 181 2,400 -840 Descending FlightAware
05:08AM 33.6500 -84.4980 90° East 148 170 1,900 -780 Descending FlightAware
05:09AM 33.6490 -84.4710 93° East 150 173 1,500 -840 Descending FlightAware
05:09AM 33.6500 -84.4490 87° East 158 182 1,100 -960 Descending FlightAware
05:10AM 33.6500 -84.4270 90° East 135 155 -2,580 Descending FlightAware
05:11AM 33.6500 -84.4170 90° East 32 37  Level FlightAware
05:11AM 33.6510 -84.4190 301° West 23 26  Level FlightAware
05:11AM 33.6520 -84.4190 360° North 25 29  Level FlightAware
05:12AM 33.6540 -84.4190 360° North 25 29  Level FlightAware
05:17AM 33.6333 -84.4167 95° East  Level FlightAware Approximate
05:18AM 33.6367 -84.4279 95° East  Level Estimated
05:19AM 33.6367 -84.4279 95° East  Level Estimated